createdAt,value
2018-01-15T00:01:53.774Z,78.11
2018-01-15T00:04:21.457Z,78.17
2018-01-15T00:06:49.010Z,78.29
2018-01-15T00:09:16.519Z,78.45
2018-01-15T00:11:44.197Z,78.56
2018-01-15T00:14:11.674Z,78.58
2018-01-15T00:16:39.168Z,78.65
2018-01-15T00:19:06.681Z,78.69
2018-01-15T00:21:34.180Z,78.65
2018-01-15T00:24:01.666Z,78.39
2018-01-15T00:26:29.306Z,78.57
2018-01-15T00:28:56.786Z,78.97
2018-01-15T00:31:24.250Z,79.19
2018-01-15T00:33:51.937Z,79.16
2018-01-15T00:36:19.449Z,79.07
2018-01-15T00:38:46.943Z,79.20
2018-01-15T00:41:14.447Z,79.09
2018-01-15T00:43:41.942Z,78.73
2018-01-15T00:46:09.541Z,78.91
2018-01-15T00:48:37.084Z,79.12
2018-01-15T00:51:04.577Z,79.18
2018-01-15T00:53:32.323Z,78.92
2018-01-15T00:55:59.869Z,78.63
2018-01-15T00:58:27.427Z,79.00
2018-01-15T01:00:54.951Z,79.06
2018-01-15T01:03:22.430Z,78.91
2018-01-15T01:05:49.917Z,78.99
2018-01-15T01:08:17.571Z,78.88
2018-01-15T01:10:45.070Z,79.04
2018-01-15T01:13:12.566Z,79.13
2018-01-15T01:15:40.086Z,79.21
2018-01-15T01:18:07.559Z,78.96
2018-01-15T01:20:35.057Z,78.96
2018-01-15T01:23:02.658Z,78.77
2018-01-15T01:25:30.194Z,78.67
2018-01-15T01:27:57.659Z,78.76
2018-01-15T01:30:25.206Z,78.94
2018-01-15T01:32:52.666Z,78.99
2018-01-15T01:35:20.164Z,79.14
2018-01-15T01:37:47.651Z,79.08
2018-01-15T01:40:15.122Z,79.18
2018-01-15T01:42:42.624Z,79.00
2018-01-15T01:45:10.230Z,79.12
2018-01-15T01:47:37.698Z,79.45
2018-01-15T01:50:05.165Z,79.38
2018-01-15T01:52:32.696Z,79.19
2018-01-15T01:55:00.192Z,79.22
2018-01-15T01:57:27.682Z,79.37
2018-01-15T01:59:55.205Z,79.30
2018-01-15T02:02:22.694Z,79.15
2018-01-15T02:04:50.195Z,78.87
2018-01-15T02:07:17.775Z,79.12
2018-01-15T02:09:45.345Z,79.08
2018-01-15T02:12:12.812Z,79.20
2018-01-15T02:14:40.373Z,79.31
2018-01-15T02:17:07.834Z,79.20
2018-01-15T02:19:35.321Z,79.42
2018-01-15T02:22:02.828Z,79.48
2018-01-15T02:24:30.314Z,79.84
2018-01-15T02:26:57.862Z,80.00
2018-01-15T02:29:25.359Z,79.84
2018-01-15T02:31:52.835Z,80.06
2018-01-15T02:34:20.312Z,79.75
2018-01-15T02:36:47.807Z,79.68
2018-01-15T02:39:15.293Z,79.87
2018-01-15T02:41:42.867Z,79.78
2018-01-15T02:44:10.322Z,79.90
2018-01-15T02:46:37.785Z,79.93
2018-01-15T02:49:05.312Z,79.79
2018-01-15T02:51:32.778Z,79.74
2018-01-15T02:54:00.263Z,79.44
2018-01-15T02:56:27.741Z,79.61
2018-01-15T02:58:55.504Z,79.68
2018-01-15T03:01:22.996Z,79.73
2018-01-15T03:03:50.462Z,79.74
2018-01-15T03:06:17.944Z,79.77
2018-01-15T03:08:45.422Z,79.82
2018-01-15T03:11:12.906Z,79.83
2018-01-15T03:13:40.391Z,79.89
2018-01-15T03:16:07.848Z,79.79
2018-01-15T03:18:35.356Z,79.71
2018-01-15T03:21:02.877Z,79.75
2018-01-15T03:23:30.361Z,79.53
2018-01-15T03:25:57.933Z,79.71
2018-01-15T03:28:25.423Z,79.59
2018-01-15T03:30:52.899Z,79.64
2018-01-15T03:33:20.389Z,79.44
2018-01-15T03:35:47.874Z,79.48
2018-01-15T03:38:15.336Z,79.49
2018-01-15T03:40:42.840Z,79.47
2018-01-15T03:43:10.305Z,79.51
2018-01-15T03:45:37.795Z,79.39
2018-01-15T03:48:05.283Z,79.60
2018-01-15T03:50:32.756Z,79.44
2018-01-15T03:53:00.258Z,79.37
2018-01-15T03:55:27.816Z,79.28
2018-01-15T03:57:55.281Z,79.38
2018-01-15T04:00:22.846Z,79.14
2018-01-15T04:02:50.351Z,79.21
2018-01-15T04:05:17.842Z,79.40
2018-01-15T04:07:45.335Z,79.35
2018-01-15T04:10:12.844Z,79.00
2018-01-15T04:12:40.334Z,78.98
2018-01-15T04:15:07.810Z,79.26
2018-01-15T04:17:35.337Z,79.21
2018-01-15T04:20:02.892Z,79.20
2018-01-15T04:22:30.370Z,79.53
2018-01-15T04:24:57.846Z,79.56
2018-01-15T04:27:25.354Z,79.13
2018-01-15T04:29:52.866Z,79.01
2018-01-15T04:32:20.332Z,79.06
2018-01-15T04:34:47.854Z,78.94
2018-01-15T04:37:15.368Z,78.95
2018-01-15T04:39:42.840Z,78.82
2018-01-15T04:42:10.294Z,78.65
2018-01-15T04:44:37.852Z,78.72
2018-01-15T04:47:05.336Z,78.73
2018-01-15T04:49:32.877Z,78.97
2018-01-15T04:52:00.433Z,78.78
2018-01-15T04:54:27.894Z,78.56
2018-01-15T04:56:55.373Z,78.62
2018-01-15T04:59:22.853Z,78.86
2018-01-15T05:01:50.332Z,79.11
2018-01-15T05:04:17.837Z,78.96
2018-01-15T05:06:45.416Z,79.17
2018-01-15T05:09:12.906Z,79.02
2018-01-15T05:11:40.633Z,79.16
2018-01-15T05:14:08.119Z,79.21
2018-01-15T05:16:35.637Z,79.21
2018-01-15T05:19:03.295Z,79.15
2018-01-15T05:21:30.773Z,78.94
2018-01-15T05:23:58.261Z,78.67
2018-01-15T05:26:25.761Z,78.62
2018-01-15T05:28:53.227Z,78.67
2018-01-15T05:31:20.690Z,78.72
2018-01-15T05:33:48.205Z,78.66
2018-01-15T05:36:15.694Z,78.78
2018-01-15T05:38:43.191Z,78.79
2018-01-15T05:41:10.680Z,78.77
2018-01-15T05:43:38.161Z,78.42
2018-01-15T05:46:05.662Z,78.25
2018-01-15T05:48:33.174Z,78.37
2018-01-15T05:51:00.668Z,78.52
2018-01-15T05:53:28.185Z,78.49
2018-01-15T05:55:55.792Z,78.31
2018-01-15T05:58:23.253Z,78.36
2018-01-15T06:00:50.762Z,78.00
2018-01-15T06:03:18.231Z,77.95
2018-01-15T06:05:45.713Z,77.71
2018-01-15T06:08:13.225Z,77.45
2018-01-15T06:10:40.717Z,77.53
2018-01-15T06:13:08.206Z,77.40
2018-01-15T06:15:35.699Z,77.67
2018-01-15T06:18:03.185Z,78.09
2018-01-15T06:20:30.665Z,77.80
2018-01-15T06:22:58.221Z,78.03
2018-01-15T06:25:25.710Z,78.01
2018-01-15T06:27:53.195Z,78.06
2018-01-15T06:30:20.667Z,78.31
2018-01-15T06:32:48.140Z,77.97
2018-01-15T06:35:15.778Z,78.24
2018-01-15T06:37:43.234Z,78.30
2018-01-15T06:40:10.711Z,78.82
2018-01-15T06:42:38.221Z,79.29
2018-01-15T06:45:05.730Z,79.62
2018-01-15T06:47:33.195Z,79.65
2018-01-15T06:50:00.683Z,80.00
2018-01-15T06:52:28.167Z,80.27
2018-01-15T06:54:55.625Z,80.54
2018-01-15T06:57:23.090Z,80.43
2018-01-15T06:59:50.574Z,80.44
2018-01-15T07:02:18.063Z,80.73
2018-01-15T07:04:45.526Z,80.71
2018-01-15T07:07:13.045Z,80.97
2018-01-15T07:09:40.684Z,81.22
2018-01-15T07:12:08.380Z,81.13
2018-01-15T07:14:35.875Z,81.42
2018-01-15T07:17:03.369Z,81.71
2018-01-15T07:19:31.027Z,81.62
2018-01-15T07:21:58.511Z,81.60
2018-01-15T07:24:26.003Z,81.69
2018-01-15T07:26:53.497Z,81.59
2018-01-15T07:29:21.157Z,81.52
2018-01-15T07:31:48.650Z,81.74
2018-01-15T07:34:16.152Z,81.89
2018-01-15T07:36:43.646Z,81.74
2018-01-15T07:39:11.243Z,81.72
2018-01-15T07:41:38.803Z,81.80
2018-01-15T07:44:06.277Z,81.79
2018-01-15T07:46:33.782Z,81.69
2018-01-15T07:49:01.340Z,81.86
2018-01-15T07:51:28.855Z,81.59
2018-01-15T07:53:56.395Z,81.66
2018-01-15T07:56:23.905Z,81.40
2018-01-15T07:58:51.376Z,81.38
2018-01-15T08:01:18.862Z,81.15
2018-01-15T08:03:46.347Z,81.01
2018-01-15T08:06:13.869Z,80.82
2018-01-15T08:08:41.355Z,80.38
2018-01-15T08:11:08.818Z,80.32
2018-01-15T08:13:36.357Z,80.06
2018-01-15T08:16:03.826Z,79.99
2018-01-15T08:18:31.286Z,80.04
2018-01-15T08:20:58.802Z,79.80
2018-01-15T08:23:26.290Z,79.57
2018-01-15T08:25:53.749Z,79.63
2018-01-15T08:28:21.240Z,79.47
2018-01-15T08:30:48.702Z,79.39
2018-01-15T08:33:16.201Z,79.05
2018-01-15T08:35:43.744Z,78.92
2018-01-15T08:38:11.225Z,78.91
2018-01-15T08:40:38.706Z,78.76
2018-01-15T08:43:06.256Z,78.72
2018-01-15T08:45:33.779Z,78.56
2018-01-15T08:48:01.239Z,78.33
2018-01-15T08:50:28.757Z,78.18
2018-01-15T08:52:56.349Z,77.80
2018-01-15T08:55:23.814Z,77.81
2018-01-15T08:57:51.378Z,77.47
2018-01-15T09:00:18.854Z,77.44
2018-01-15T09:02:46.395Z,77.15
2018-01-15T09:05:13.907Z,76.82
2018-01-15T09:07:41.434Z,76.71
2018-01-15T09:10:08.993Z,76.33
2018-01-15T09:12:36.524Z,76.33
2018-01-15T09:15:04.738Z,76.20
2018-01-15T09:17:32.205Z,76.04
2018-01-15T09:19:59.709Z,76.03
2018-01-15T09:22:27.210Z,75.99
2018-01-15T09:24:54.726Z,75.66
2018-01-15T09:27:22.420Z,75.17
2018-01-15T09:29:49.882Z,75.17
2018-01-15T09:32:17.365Z,74.90
2018-01-15T09:34:44.846Z,74.09
2018-01-15T09:37:12.375Z,73.11
2018-01-15T09:39:39.872Z,72.29
2018-01-15T09:42:07.354Z,72.14
2018-01-15T09:44:34.874Z,72.79
2018-01-15T09:47:02.372Z,73.59
2018-01-15T09:49:29.897Z,74.01
2018-01-15T09:51:57.503Z,74.12
2018-01-15T09:54:24.962Z,74.07
2018-01-15T09:56:52.449Z,74.00
2018-01-15T09:59:19.962Z,74.06
2018-01-15T10:01:47.485Z,73.81
2018-01-15T10:04:14.998Z,73.82
2018-01-15T10:06:42.559Z,73.83
2018-01-15T10:09:10.028Z,73.52
2018-01-15T10:11:37.582Z,73.77
2018-01-15T10:14:05.068Z,73.64
2018-01-15T10:16:32.552Z,73.75
2018-01-15T10:19:00.044Z,73.63
2018-01-15T10:21:27.505Z,73.38
2018-01-15T10:23:55.214Z,73.40
2018-01-15T10:26:22.771Z,73.05
2018-01-15T10:28:50.257Z,72.99
2018-01-15T10:31:17.791Z,72.83
2018-01-15T10:33:45.284Z,72.48
2018-01-15T10:36:12.769Z,72.43
2018-01-15T10:38:40.227Z,72.34
2018-01-15T10:41:07.716Z,72.01
2018-01-15T10:43:35.205Z,71.96
2018-01-15T10:46:02.690Z,71.45
2018-01-15T10:48:30.181Z,71.21
2018-01-15T10:50:57.666Z,70.95
2018-01-15T10:53:25.125Z,70.88
2018-01-15T10:55:52.598Z,70.63
2018-01-15T10:58:20.087Z,70.55
2018-01-15T11:00:51.392Z,70.44
2018-01-15T11:03:18.874Z,70.14
2018-01-15T11:05:46.647Z,69.66
2018-01-15T11:08:14.129Z,69.81
2018-01-15T11:10:41.779Z,69.58
2018-01-15T11:13:09.300Z,69.50
2018-01-15T11:15:36.785Z,69.13
2018-01-15T11:18:04.289Z,68.84
2018-01-15T11:20:31.754Z,68.81
2018-01-15T11:22:59.250Z,68.62
2018-01-15T11:25:26.779Z,68.62
2018-01-15T11:27:54.241Z,68.22
2018-01-15T11:30:21.741Z,68.05
2018-01-15T11:32:49.254Z,68.01
2018-01-15T11:35:16.825Z,67.88
2018-01-15T11:37:44.316Z,67.87
2018-01-15T11:40:11.804Z,67.82
2018-01-15T11:42:39.288Z,67.61
2018-01-15T11:45:06.740Z,67.61
2018-01-15T11:47:34.199Z,67.40
2018-01-15T11:50:01.704Z,67.18
2018-01-15T11:52:29.189Z,66.75
2018-01-15T11:54:56.654Z,66.91
2018-01-15T11:57:24.123Z,66.67
2018-01-15T11:59:51.610Z,66.33
2018-01-15T12:02:19.123Z,65.92
2018-01-15T12:04:46.585Z,65.84
2018-01-15T12:07:14.171Z,65.68
2018-01-15T12:09:41.633Z,65.59
2018-01-15T12:12:09.157Z,65.82
2018-01-15T12:14:36.662Z,65.46
2018-01-15T12:17:04.174Z,65.43
2018-01-15T12:19:31.646Z,65.13
2018-01-15T12:22:00.233Z,65.41
2018-01-15T12:24:28.630Z,65.53
2018-01-15T12:26:56.121Z,65.77
2018-01-15T12:29:23.619Z,65.97
2018-01-15T12:31:51.098Z,65.92
2018-01-15T12:34:18.557Z,65.85
2018-01-15T12:36:46.068Z,65.65
2018-01-15T12:39:13.530Z,65.53
2018-01-15T12:41:41.043Z,65.52
2018-01-15T12:44:08.517Z,65.46
2018-01-15T12:46:36.115Z,65.29
2018-01-15T12:49:03.617Z,65.26
2018-01-15T12:51:31.101Z,65.23
2018-01-15T12:53:58.614Z,64.99
2018-01-15T12:56:26.098Z,64.73
2018-01-15T12:58:53.567Z,64.98
2018-01-15T13:01:21.075Z,64.78
2018-01-15T13:03:48.668Z,64.68
2018-01-15T13:06:20.158Z,64.58
2018-01-15T13:08:49.498Z,64.58
2018-01-15T13:11:17.004Z,64.49
2018-01-15T13:13:44.474Z,64.56
2018-01-15T13:16:11.949Z,64.22
2018-01-15T13:18:39.444Z,64.45
2018-01-15T13:21:06.976Z,64.24
2018-01-15T13:23:34.456Z,64.72
2018-01-15T13:26:01.945Z,64.73
2018-01-15T13:28:29.407Z,64.63
2018-01-15T13:30:56.870Z,64.57
2018-01-15T13:33:24.454Z,64.56
2018-01-15T13:35:51.934Z,64.70
2018-01-15T13:38:19.501Z,64.53
2018-01-15T13:40:46.970Z,64.50
2018-01-15T13:43:14.444Z,64.50
2018-01-15T13:45:41.926Z,64.69
2018-01-15T13:48:09.438Z,64.54
2018-01-15T13:50:36.963Z,64.53
2018-01-15T13:53:04.555Z,64.57
2018-01-15T13:55:32.022Z,64.79
2018-01-15T13:57:59.495Z,64.57
2018-01-15T14:00:27.025Z,64.64
2018-01-15T14:02:54.491Z,64.62
2018-01-15T14:05:21.967Z,64.71
2018-01-15T14:07:49.472Z,64.47
2018-01-15T14:10:16.968Z,64.52
2018-01-15T14:12:44.470Z,64.53
2018-01-15T14:15:11.949Z,64.64
2018-01-15T14:17:39.534Z,64.64
2018-01-15T14:20:07.029Z,64.80
2018-01-15T14:22:34.512Z,64.97
2018-01-15T14:25:01.994Z,65.07
2018-01-15T14:27:29.469Z,65.32
2018-01-15T14:29:56.942Z,65.36
2018-01-15T14:32:24.403Z,65.49
2018-01-15T14:34:51.873Z,65.57
2018-01-15T14:37:19.413Z,65.74
2018-01-15T14:39:46.908Z,65.82
2018-01-15T14:42:15.279Z,65.79
2018-01-15T14:44:42.779Z,65.92
2018-01-15T14:47:10.238Z,65.60
2018-01-15T14:49:37.901Z,65.45
2018-01-15T14:52:05.481Z,65.79
2018-01-15T14:54:32.953Z,65.72
2018-01-15T14:57:00.433Z,66.07
2018-01-15T14:59:27.948Z,66.16
2018-01-15T15:01:55.487Z,66.59
2018-01-15T15:04:22.973Z,66.91
2018-01-15T15:06:50.450Z,67.11
2018-01-15T15:09:17.942Z,67.16
2018-01-15T15:11:45.450Z,67.29
2018-01-15T15:14:13.033Z,67.29
2018-01-15T15:16:40.522Z,66.89
2018-01-15T15:19:08.034Z,66.96
2018-01-15T15:21:35.539Z,66.94
2018-01-15T15:24:03.021Z,66.86
2018-01-15T15:26:30.542Z,66.82
2018-01-15T15:28:58.030Z,66.86
2018-01-15T15:31:25.507Z,66.75
2018-01-15T15:33:53.018Z,67.17
2018-01-15T15:36:20.498Z,67.02
2018-01-15T15:38:47.978Z,67.12
2018-01-15T15:41:15.474Z,67.42
2018-01-15T15:43:42.960Z,67.44
2018-01-15T15:46:10.430Z,67.37
2018-01-15T15:48:37.911Z,67.50
2018-01-15T15:51:05.394Z,67.62
2018-01-15T15:53:32.869Z,67.55
2018-01-15T15:56:00.358Z,67.54
2018-01-15T15:58:27.900Z,67.64
2018-01-15T16:00:55.334Z,67.55
2018-01-15T16:03:22.830Z,67.73
2018-01-15T16:05:50.334Z,67.73
2018-01-15T16:08:17.842Z,67.75
2018-01-15T16:10:45.538Z,67.77
2018-01-15T16:13:13.024Z,68.04
2018-01-15T16:15:40.490Z,67.96
2018-01-15T16:18:07.966Z,68.36
2018-01-15T16:20:35.450Z,68.19
2018-01-15T16:23:02.936Z,67.95
2018-01-15T16:25:30.402Z,68.20
2018-01-15T16:27:57.870Z,68.42
2018-01-15T16:30:25.345Z,68.21
2018-01-15T16:32:52.833Z,68.48
2018-01-15T16:35:20.321Z,68.57
2018-01-15T16:37:48.046Z,68.84
2018-01-15T16:40:15.536Z,69.14
2018-01-15T16:42:43.010Z,69.21
2018-01-15T16:45:10.547Z,69.12
2018-01-15T16:47:38.034Z,69.06
2018-01-15T16:50:11.242Z,69.40
2018-01-15T16:52:38.728Z,69.32
2018-01-15T16:55:06.213Z,69.55
2018-01-15T16:57:33.713Z,69.74
2018-01-15T17:00:01.196Z,69.51
2018-01-15T17:02:28.696Z,69.54
2018-01-15T17:04:56.155Z,69.54
2018-01-15T17:07:23.653Z,69.60
2018-01-15T17:09:51.567Z,69.66
2018-01-15T17:12:19.065Z,69.58
2018-01-15T17:14:46.552Z,69.53
2018-01-15T17:17:14.027Z,69.58
2018-01-15T17:19:41.505Z,69.72
2018-01-15T17:22:09.210Z,69.68
2018-01-15T17:24:36.697Z,69.52
2018-01-15T17:27:04.225Z,69.45
2018-01-15T17:29:31.697Z,69.34
2018-01-15T17:31:59.202Z,69.25
2018-01-15T17:34:26.757Z,69.30
2018-01-15T17:36:54.237Z,69.45
2018-01-15T17:39:21.714Z,69.45
2018-01-15T17:41:49.194Z,69.20
2018-01-15T17:44:16.691Z,69.16
2018-01-15T17:46:44.175Z,69.13
2018-01-15T17:49:11.637Z,69.31
2018-01-15T17:51:39.102Z,69.08
2018-01-15T17:54:06.929Z,69.27
2018-01-15T17:56:34.388Z,69.27
2018-01-15T17:59:01.846Z,69.17
2018-01-15T18:01:29.347Z,69.20
2018-01-15T18:03:56.842Z,69.18
2018-01-15T18:06:24.304Z,69.00
2018-01-15T18:08:51.794Z,68.85
2018-01-15T18:11:19.254Z,69.12
2018-01-15T18:13:46.734Z,68.87
2018-01-15T18:16:14.258Z,68.77
2018-01-15T18:18:41.715Z,68.93
2018-01-15T18:21:09.170Z,68.90
2018-01-15T18:23:36.674Z,69.17
2018-01-15T18:26:04.181Z,69.26
2018-01-15T18:28:31.638Z,69.30
2018-01-15T18:30:59.149Z,69.23
2018-01-15T18:33:26.635Z,69.06
2018-01-15T18:35:54.103Z,69.00
2018-01-15T18:38:21.657Z,69.18
2018-01-15T18:40:49.142Z,69.09
2018-01-15T18:43:16.630Z,69.01
2018-01-15T18:45:44.210Z,68.98
2018-01-15T18:48:11.698Z,69.08
2018-01-15T18:50:39.221Z,69.27
2018-01-15T18:53:06.681Z,69.27
2018-01-15T18:55:38.145Z,69.59
2018-01-15T18:58:05.650Z,69.68
2018-01-15T19:00:33.133Z,69.55
2018-01-15T19:03:00.605Z,69.57
2018-01-15T19:05:28.074Z,69.67
2018-01-15T19:07:55.589Z,69.42
2018-01-15T19:10:23.086Z,69.44
2018-01-15T19:12:50.570Z,69.29
2018-01-15T19:15:18.054Z,69.33
2018-01-15T19:17:45.514Z,69.30
2018-01-15T19:20:12.974Z,69.31
2018-01-15T19:22:40.476Z,69.34
2018-01-15T19:25:07.968Z,69.31
2018-01-15T19:27:35.527Z,69.23
2018-01-15T19:30:03.016Z,69.14
2018-01-15T19:32:30.492Z,69.21
2018-01-15T19:35:18.858Z,69.15
2018-01-15T19:37:46.613Z,69.31
2018-01-15T19:40:14.122Z,69.03
2018-01-15T19:42:41.595Z,69.23
2018-01-15T19:45:14.536Z,69.41
2018-01-15T19:50:55.020Z,69.55
2018-01-15T19:53:28.075Z,69.99
2018-01-15T19:56:01.127Z,70.14
2018-01-15T19:58:34.241Z,70.38
2018-01-15T20:01:07.559Z,70.22
2018-01-15T20:03:40.807Z,70.34
2018-01-15T20:06:13.838Z,70.33
2018-01-15T20:08:46.866Z,70.05
2018-01-15T20:11:14.362Z,69.91
2018-01-15T20:13:41.835Z,69.85
2018-01-15T20:16:09.319Z,69.73
2018-01-15T20:18:36.807Z,69.78
2018-01-15T20:21:04.294Z,69.53
2018-01-15T20:23:31.817Z,69.64
2018-01-15T20:25:59.358Z,69.67
2018-01-15T20:28:26.889Z,69.56
2018-01-15T20:30:54.393Z,69.30
2018-01-15T20:33:21.895Z,69.15
2018-01-15T20:35:49.372Z,69.08
2018-01-15T20:38:16.903Z,68.92
2018-01-15T20:40:44.402Z,68.92
2018-01-15T20:43:11.910Z,68.81
2018-01-15T20:45:39.518Z,68.69
2018-01-15T20:48:07.072Z,68.55
2018-01-15T20:50:34.534Z,68.60
2018-01-15T20:53:02.094Z,68.90
2018-01-15T20:55:29.814Z,68.73
2018-01-15T20:57:57.294Z,68.73
2018-01-15T21:00:24.868Z,68.59
2018-01-15T21:02:52.345Z,68.45
2018-01-15T21:05:19.798Z,68.42
2018-01-15T21:07:47.258Z,68.36
2018-01-15T21:10:14.758Z,67.84
2018-01-15T21:12:42.246Z,68.05
2018-01-15T21:15:09.735Z,67.72
2018-01-15T21:17:37.224Z,67.86
2018-01-15T21:20:04.675Z,67.80
2018-01-15T21:22:32.168Z,67.90
2018-01-15T21:24:59.672Z,67.78
2018-01-15T21:27:27.138Z,67.73
2018-01-15T21:29:54.625Z,67.74
2018-01-15T21:32:22.582Z,67.63
2018-01-15T21:34:50.057Z,67.60
2018-01-15T21:37:17.632Z,67.53
2018-01-15T21:39:45.216Z,67.66
2018-01-15T21:42:12.710Z,67.56
2018-01-15T21:44:40.166Z,67.93
2018-01-15T21:47:07.649Z,67.97
2018-01-15T21:49:35.214Z,67.48
2018-01-15T21:52:02.699Z,67.67
2018-01-15T21:54:30.181Z,67.43
2018-01-15T21:56:57.638Z,67.52
2018-01-15T21:59:25.121Z,67.33
2018-01-15T22:01:52.594Z,67.37
2018-01-15T22:04:20.572Z,67.25
2018-01-15T22:06:48.053Z,67.72
2018-01-15T22:09:15.591Z,67.37
2018-01-15T22:11:43.146Z,67.48
2018-01-15T22:14:10.694Z,67.78
2018-01-15T22:16:38.152Z,67.67
2018-01-15T22:19:05.648Z,67.67
2018-01-15T22:21:33.134Z,67.87
2018-01-15T22:24:00.585Z,67.76
2018-01-15T22:26:28.039Z,67.75
2018-01-15T22:28:55.569Z,67.57
2018-01-15T22:31:23.018Z,67.53
2018-01-15T22:33:50.473Z,67.50
2018-01-15T22:36:17.949Z,67.38
2018-01-15T22:38:45.440Z,67.18
2018-01-15T22:41:12.908Z,67.50
2018-01-15T22:43:40.405Z,67.81
2018-01-15T22:46:07.888Z,67.81
2018-01-15T22:48:35.387Z,68.27
2018-01-15T22:51:02.878Z,68.59
2018-01-15T22:53:30.338Z,68.71
2018-01-15T22:55:57.879Z,69.18
2018-01-15T22:58:25.373Z,69.22
2018-01-15T23:00:52.849Z,69.47
2018-01-15T23:03:20.345Z,69.49
2018-01-15T23:05:47.867Z,69.77
2018-01-15T23:08:15.325Z,70.04
2018-01-15T23:10:42.801Z,70.11
2018-01-15T23:13:10.301Z,70.17
2018-01-15T23:15:37.854Z,70.57
2018-01-15T23:18:05.347Z,71.33
2018-01-15T23:20:32.860Z,71.64
2018-01-15T23:23:00.326Z,71.92
2018-01-15T23:25:27.807Z,71.76
2018-01-15T23:27:55.317Z,72.26
2018-01-15T23:30:22.782Z,72.58
2018-01-15T23:32:50.244Z,72.78
2018-01-15T23:35:17.722Z,73.03
2018-01-15T23:37:45.174Z,73.79
2018-01-15T23:40:12.735Z,74.45
2018-01-15T23:42:40.231Z,75.22
2018-01-15T23:45:07.726Z,76.12
2018-01-15T23:47:35.193Z,76.62
2018-01-15T23:50:02.711Z,76.78
2018-01-15T23:52:30.171Z,77.02
2018-01-15T23:54:57.633Z,77.13
2018-01-15T23:57:25.113Z,77.44
2018-01-15T23:59:52.597Z,77.36
